createdAt,value
2023-08-20T00:01:30.065Z,4.70
2023-08-20T00:03:58.600Z,4.30
2023-08-20T00:06:27.319Z,3.90
2023-08-20T00:08:55.572Z,4.53
2023-08-20T00:11:23.855Z,4.57
2023-08-20T00:13:52.120Z,4.60
2023-08-20T00:16:22.205Z,4.90
2023-08-20T00:18:50.710Z,5.37
2023-08-20T00:21:19.286Z,4.67
2023-08-20T00:23:47.793Z,4.40
2023-08-20T00:26:16.445Z,4.27
2023-08-20T00:28:44.806Z,4.17
2023-08-20T00:31:13.145Z,5.20
2023-08-20T00:33:50.667Z,4.87
2023-08-20T00:36:25.810Z,5.20
2023-08-20T00:38:54.031Z,4.30
2023-08-20T00:41:22.368Z,4.97
2023-08-20T00:43:50.635Z,4.40
2023-08-20T00:46:19.063Z,4.10
2023-08-20T00:48:48.701Z,4.07
2023-08-20T00:51:17.510Z,4.70
2023-08-20T00:53:45.840Z,4.43
2023-08-20T00:56:14.127Z,4.57
2023-08-20T00:58:42.420Z,4.67
2023-08-20T01:01:10.710Z,4.57
2023-08-20T01:03:38.972Z,4.80
2023-08-20T01:06:10.548Z,4.73
2023-08-20T01:08:40.905Z,5.07
2023-08-20T01:11:12.128Z,4.53
2023-08-20T01:13:40.449Z,4.40
2023-08-20T01:16:08.786Z,4.40
2023-08-20T01:18:37.077Z,5.00
2023-08-20T01:21:08.207Z,4.40
2023-08-20T01:23:59.696Z,4.20
2023-08-20T01:26:34.728Z,4.80
2023-08-20T01:29:05.430Z,4.00
2023-08-20T01:31:34.433Z,4.23
2023-08-20T01:34:04.082Z,5.30
2023-08-20T01:36:32.473Z,4.30
2023-08-20T01:39:00.769Z,4.30
2023-08-20T01:41:29.065Z,3.77
2023-08-20T01:43:57.318Z,4.13
2023-08-20T01:46:27.003Z,4.20
2023-08-20T01:48:55.280Z,3.97
2023-08-20T01:51:23.534Z,5.10
2023-08-20T01:53:51.802Z,4.30
2023-08-20T01:56:20.150Z,4.50
2023-08-20T01:58:48.408Z,4.90
2023-08-20T02:01:16.735Z,4.97
2023-08-20T02:03:46.409Z,4.60
2023-08-20T02:06:14.676Z,4.73
2023-08-20T02:08:42.891Z,4.50
2023-08-20T02:11:11.193Z,4.70
2023-08-20T02:13:39.489Z,4.10
2023-08-20T02:16:08.147Z,4.47
2023-08-20T02:18:36.576Z,4.80
2023-08-20T02:21:06.351Z,4.23
2023-08-20T02:23:34.605Z,4.77
2023-08-20T02:26:03.350Z,4.50
2023-08-20T02:28:31.667Z,4.20
2023-08-20T02:31:01.212Z,4.93
2023-08-20T02:33:29.569Z,4.17
2023-08-20T02:35:57.876Z,4.63
2023-08-20T02:38:27.489Z,4.80
2023-08-20T02:40:55.710Z,4.33
2023-08-20T02:43:24.460Z,4.80
2023-08-20T02:45:53.034Z,4.90
2023-08-20T02:48:21.314Z,5.00
2023-08-20T02:50:49.761Z,4.20
2023-08-20T02:53:18.047Z,4.30
2023-08-20T02:55:47.624Z,5.07
2023-08-20T02:58:15.971Z,4.93
2023-08-20T03:00:45.021Z,4.80
2023-08-20T03:03:13.722Z,4.47
2023-08-20T03:05:42.065Z,4.70
2023-08-20T03:08:11.087Z,4.90
2023-08-20T03:10:39.386Z,4.80
2023-08-20T03:13:09.062Z,5.30
2023-08-20T03:15:37.374Z,5.10
2023-08-20T03:18:06.076Z,4.67
2023-08-20T03:20:34.385Z,4.23
2023-08-20T03:23:02.935Z,4.23
2023-08-20T03:25:31.236Z,5.43
2023-08-20T03:27:59.485Z,4.67
2023-08-20T03:30:29.132Z,4.00
2023-08-20T03:32:57.441Z,4.50
2023-08-20T03:35:25.880Z,5.23
2023-08-20T03:37:54.155Z,5.00
2023-08-20T03:40:22.621Z,4.60
2023-08-20T03:42:50.912Z,5.33
2023-08-20T03:45:19.289Z,4.90
2023-08-20T03:47:48.948Z,4.53
2023-08-20T03:50:17.228Z,4.20
2023-08-20T03:52:45.553Z,4.70
2023-08-20T03:55:13.821Z,4.27
2023-08-20T03:57:42.058Z,4.73
2023-08-20T04:00:11.442Z,5.20
2023-08-20T04:02:40.006Z,4.90
2023-08-20T04:05:10.057Z,4.53
2023-08-20T04:07:38.503Z,4.10
2023-08-20T04:10:07.379Z,4.90
2023-08-20T04:12:35.668Z,4.90
2023-08-20T04:15:03.987Z,4.40
2023-08-20T04:17:32.271Z,4.67
2023-08-20T04:20:00.583Z,4.63
2023-08-20T04:22:32.434Z,4.50
2023-08-20T04:25:02.705Z,4.77
2023-08-20T04:27:32.578Z,4.90
2023-08-20T04:30:00.931Z,4.20
2023-08-20T04:32:30.173Z,5.07
2023-08-20T04:34:58.542Z,4.97
2023-08-20T04:37:26.812Z,5.43
2023-08-20T04:39:56.670Z,4.67
2023-08-20T04:42:25.005Z,5.17
2023-08-20T04:44:53.307Z,4.20
2023-08-20T04:47:21.607Z,4.50
2023-08-20T04:49:49.890Z,5.03
2023-08-20T04:52:18.182Z,4.37
2023-08-20T04:54:46.487Z,5.10
2023-08-20T04:57:17.282Z,5.10
2023-08-20T04:59:46.451Z,5.53
2023-08-20T05:02:14.905Z,4.90
2023-08-20T05:04:43.497Z,4.77
2023-08-20T05:07:11.800Z,4.87
2023-08-20T05:09:40.125Z,5.60
2023-08-20T05:12:08.748Z,4.80
2023-08-20T05:14:38.434Z,4.60
2023-08-20T05:17:06.911Z,4.40
2023-08-20T05:19:35.269Z,4.43
2023-08-20T05:22:03.609Z,5.00
2023-08-20T05:24:31.923Z,4.93
2023-08-20T05:27:06.856Z,5.80
2023-08-20T05:29:36.125Z,5.67
2023-08-20T05:32:05.967Z,5.10
2023-08-20T05:34:34.223Z,5.60
2023-08-20T05:37:02.669Z,5.87
2023-08-20T05:39:32.568Z,5.33
2023-08-20T05:42:00.897Z,5.20
2023-08-20T05:44:29.162Z,5.17
2023-08-20T05:46:57.465Z,5.63
2023-08-20T05:49:28.726Z,5.90
2023-08-20T05:51:59.237Z,4.70
2023-08-20T05:54:27.569Z,5.07
2023-08-20T05:56:55.842Z,5.20
2023-08-20T05:59:24.179Z,4.77
2023-08-20T06:01:52.541Z,4.93
2023-08-20T06:04:21.268Z,5.30
2023-08-20T06:06:50.924Z,5.50
2023-08-20T06:09:19.429Z,5.10
2023-08-20T06:11:47.778Z,5.13
2023-08-20T06:14:16.000Z,5.57
2023-08-20T06:16:45.248Z,5.27
2023-08-20T06:19:13.555Z,5.23
2023-08-20T06:21:41.861Z,5.47
2023-08-20T06:24:11.649Z,4.80
2023-08-20T06:26:39.912Z,5.40
2023-08-20T06:29:08.272Z,5.27
2023-08-20T06:31:36.613Z,5.47
2023-08-20T06:34:05.135Z,5.20
2023-08-20T06:36:33.430Z,5.60
2023-08-20T06:39:01.697Z,4.80
2023-08-20T06:41:31.340Z,5.03
2023-08-20T06:43:59.593Z,5.63
2023-08-20T06:46:28.006Z,5.30
2023-08-20T06:48:56.349Z,5.97
2023-08-20T06:51:24.758Z,5.20
2023-08-20T06:53:53.061Z,6.40
2023-08-20T06:56:21.463Z,6.00
2023-08-20T06:58:51.094Z,5.70
2023-08-20T07:01:19.450Z,6.50
2023-08-20T07:03:47.803Z,5.77
2023-08-20T07:06:17.289Z,6.20
2023-08-20T07:08:45.582Z,6.00
2023-08-20T07:11:13.918Z,5.97
2023-08-20T07:13:42.215Z,5.83
2023-08-20T07:16:12.044Z,6.80
2023-08-20T07:18:40.428Z,5.73
2023-08-20T07:21:09.803Z,6.17
2023-08-20T07:23:38.113Z,5.73
2023-08-20T07:26:07.361Z,5.67
2023-08-20T07:28:53.336Z,5.10
2023-08-20T07:31:23.102Z,5.83
2023-08-20T07:33:51.902Z,6.53
2023-08-20T07:36:20.635Z,5.60
2023-08-20T07:38:47.885Z,5.83
2023-08-20T07:41:16.187Z,6.40
2023-08-20T07:43:44.693Z,6.50
2023-08-20T07:46:13.098Z,6.00
2023-08-20T07:48:42.917Z,6.00
2023-08-20T07:51:11.213Z,5.43
2023-08-20T07:53:39.509Z,6.27
2023-08-20T07:56:07.848Z,5.80
2023-08-20T07:58:36.091Z,6.10
2023-08-20T08:01:04.350Z,5.40
2023-08-20T08:03:32.842Z,5.37
2023-08-20T08:06:02.567Z,5.47
2023-08-20T08:08:30.856Z,5.13
2023-08-20T08:10:59.230Z,5.97
2023-08-20T08:13:28.579Z,5.30
2023-08-20T08:15:56.846Z,5.70
2023-08-20T08:18:25.193Z,5.13
2023-08-20T08:20:53.504Z,4.93
2023-08-20T08:23:23.156Z,5.40
2023-08-20T08:25:51.412Z,4.87
2023-08-20T08:28:19.706Z,5.47
2023-08-20T08:30:47.976Z,5.50
2023-08-20T08:33:16.268Z,5.17
2023-08-20T08:35:44.681Z,5.00
2023-08-20T08:38:12.946Z,5.40
2023-08-20T08:40:43.735Z,5.80
2023-08-20T08:43:17.915Z,4.97
2023-08-20T08:45:49.125Z,4.93
2023-08-20T08:48:18.309Z,4.17
2023-08-20T08:50:46.731Z,4.73
2023-08-20T08:53:15.808Z,5.47
2023-08-20T08:55:45.494Z,5.07
2023-08-20T08:58:13.837Z,5.07
2023-08-20T09:00:42.395Z,4.90
2023-08-20T09:03:10.977Z,4.73
2023-08-20T09:05:48.901Z,5.40
2023-08-20T09:08:23.476Z,4.67
2023-08-20T09:10:54.371Z,4.70
2023-08-20T09:13:25.825Z,5.17
2023-08-20T09:15:54.795Z,5.30
2023-08-20T09:18:23.206Z,4.30
2023-08-20T09:20:51.840Z,5.47
2023-08-20T09:23:20.245Z,4.73
2023-08-20T09:25:48.570Z,4.30
2023-08-20T09:28:18.255Z,4.80
2023-08-20T09:30:57.554Z,4.30
2023-08-20T09:33:25.981Z,5.73
2023-08-20T09:35:55.042Z,4.80
2023-08-20T09:38:23.863Z,4.73
2023-08-20T09:40:53.583Z,4.93
2023-08-20T09:43:27.644Z,4.40
2023-08-20T09:45:57.278Z,4.00
2023-08-20T09:48:27.189Z,4.23
2023-08-20T09:50:59.208Z,4.37
2023-08-20T09:53:29.607Z,4.00
2023-08-20T09:55:58.804Z,4.03
2023-08-20T09:58:29.230Z,4.67
2023-08-20T10:00:57.704Z,4.27
2023-08-20T10:03:26.420Z,4.23
2023-08-20T10:05:55.377Z,4.47
2023-08-20T10:08:23.727Z,4.13
2023-08-20T10:10:52.044Z,4.10
2023-08-20T10:13:20.550Z,4.60
2023-08-20T10:15:50.296Z,4.83
2023-08-20T10:18:18.596Z,4.33
2023-08-20T10:20:46.922Z,4.07
2023-08-20T10:23:15.436Z,4.40
2023-08-20T10:25:45.279Z,4.20
2023-08-20T10:28:14.894Z,4.10
2023-08-20T10:30:58.080Z,4.93
2023-08-20T10:33:27.724Z,4.40
2023-08-20T10:35:56.042Z,3.67
2023-08-20T10:38:25.365Z,4.40
2023-08-20T10:40:57.366Z,4.53
2023-08-20T10:43:35.703Z,3.93
2023-08-20T10:46:10.834Z,4.33
2023-08-20T10:48:41.755Z,4.33
2023-08-20T10:51:11.650Z,4.80
2023-08-20T10:53:40.052Z,4.33
2023-08-20T10:56:12.182Z,3.60
2023-08-20T10:58:41.724Z,4.10
2023-08-20T11:01:20.575Z,4.30
2023-08-20T11:03:50.771Z,4.20
2023-08-20T11:06:19.743Z,4.17
2023-08-20T11:08:48.674Z,3.90
2023-08-20T11:11:17.080Z,4.10
2023-08-20T11:13:45.409Z,5.20
2023-08-20T11:16:13.691Z,3.83
2023-08-20T11:18:42.693Z,4.10
2023-08-20T11:21:12.348Z,4.27
2023-08-20T11:23:42.799Z,3.97
2023-08-20T11:26:11.106Z,4.20
2023-08-20T11:28:39.372Z,3.87
2023-08-20T11:31:08.110Z,4.53
2023-08-20T11:33:38.041Z,4.03
2023-08-20T11:36:08.238Z,4.13
2023-08-20T11:38:38.320Z,3.47
2023-08-20T11:41:06.671Z,3.77
2023-08-20T11:43:35.478Z,5.00
2023-08-20T11:46:03.864Z,4.07
2023-08-20T11:48:32.349Z,4.07
2023-08-20T11:51:00.702Z,3.93
2023-08-20T11:53:31.273Z,7.40
2023-08-20T11:56:00.865Z,3.70
2023-08-20T11:58:31.461Z,4.20
2023-08-20T12:01:01.518Z,4.67
2023-08-20T12:03:33.107Z,4.10
2023-08-20T12:06:01.470Z,5.60
2023-08-20T12:08:29.776Z,4.57
2023-08-20T12:11:01.068Z,4.53
2023-08-20T12:13:30.764Z,4.10
2023-08-20T12:15:59.044Z,5.90
2023-08-20T12:18:27.344Z,6.37
2023-08-20T12:20:55.852Z,4.20
2023-08-20T12:23:24.559Z,4.67
2023-08-20T12:25:53.568Z,4.10
2023-08-20T12:28:23.438Z,4.50
2023-08-20T12:30:53.216Z,4.17
2023-08-20T12:33:21.933Z,3.57
2023-08-20T12:35:50.968Z,3.90
2023-08-20T12:38:20.826Z,3.97
2023-08-20T12:40:49.153Z,3.70
2023-08-20T12:43:17.434Z,4.20
2023-08-20T12:45:45.654Z,4.43
2023-08-20T12:48:15.354Z,4.70
2023-08-20T12:50:44.224Z,3.73
2023-08-20T12:53:14.025Z,4.60
2023-08-20T12:55:42.295Z,4.20
2023-08-20T12:58:10.675Z,4.10
2023-08-20T13:00:38.937Z,4.20
2023-08-20T13:03:07.650Z,4.83
2023-08-20T13:05:38.092Z,4.20
2023-08-20T13:08:06.749Z,4.70
2023-08-20T13:10:35.412Z,5.00
2023-08-20T13:13:04.429Z,4.80
2023-08-20T13:15:34.695Z,4.93
2023-08-20T13:18:05.061Z,5.10
2023-08-20T13:20:33.438Z,4.40
2023-08-20T13:23:03.558Z,4.73
2023-08-20T13:25:32.146Z,4.60
2023-08-20T13:28:00.393Z,4.20
2023-08-20T13:30:28.718Z,4.70
2023-08-20T13:32:57.088Z,4.20
2023-08-20T13:35:25.551Z,4.00
2023-08-20T13:37:54.320Z,4.07
2023-08-20T13:40:23.989Z,3.43
2023-08-20T13:42:52.656Z,3.40
2023-08-20T13:45:20.982Z,3.90
2023-08-20T13:47:49.272Z,3.70
2023-08-20T13:50:17.739Z,4.43
2023-08-20T13:52:46.113Z,3.77
2023-08-20T13:55:14.656Z,4.23
2023-08-20T13:57:44.280Z,4.07
2023-08-20T14:00:13.735Z,4.30
2023-08-20T14:02:42.441Z,4.10
2023-08-20T14:05:11.282Z,4.20
2023-08-20T14:07:39.658Z,4.30
2023-08-20T14:10:08.637Z,3.87
2023-08-20T14:12:40.383Z,4.07
2023-08-20T14:15:11.883Z,4.27
2023-08-20T14:17:40.312Z,3.57
2023-08-20T14:20:09.676Z,3.67
2023-08-20T14:22:38.686Z,4.70
2023-08-20T14:25:07.659Z,4.50
2023-08-20T14:27:35.976Z,4.50
2023-08-20T14:30:05.413Z,4.10
2023-08-20T14:32:38.147Z,4.00
2023-08-20T14:35:08.735Z,4.00
2023-08-20T14:37:37.053Z,3.67
2023-08-20T14:40:07.504Z,4.20
2023-08-20T14:42:36.178Z,4.07
2023-08-20T14:45:05.053Z,4.67
2023-08-20T14:47:34.909Z,4.77
2023-08-20T14:50:03.510Z,4.33
2023-08-20T14:52:31.831Z,4.33
2023-08-20T14:55:00.176Z,4.37
2023-08-20T14:57:41.051Z,4.07
2023-08-20T15:00:18.401Z,4.37
2023-08-20T15:02:48.125Z,4.23
2023-08-20T15:05:16.501Z,4.00
2023-08-20T15:07:44.997Z,4.10
2023-08-20T15:10:13.267Z,4.60
2023-08-20T15:12:41.658Z,3.70
2023-08-20T15:15:10.511Z,3.93
2023-08-20T15:17:39.562Z,4.40
2023-08-20T15:20:11.505Z,4.53
2023-08-20T15:22:40.350Z,4.17
2023-08-20T15:25:11.101Z,4.27
2023-08-20T15:27:39.709Z,4.33
2023-08-20T15:30:09.120Z,4.70
2023-08-20T15:32:37.488Z,5.00
2023-08-20T15:35:07.806Z,4.43
2023-08-20T15:37:37.870Z,4.77
2023-08-20T15:40:10.245Z,5.67
2023-08-20T15:42:38.626Z,5.40
2023-08-20T15:45:07.323Z,6.07
2023-08-20T15:47:35.994Z,5.73
2023-08-20T15:50:04.485Z,5.33
2023-08-20T15:52:32.804Z,5.67
2023-08-20T15:55:03.215Z,4.90
2023-08-20T15:57:31.479Z,4.90
2023-08-20T15:59:59.729Z,5.10
2023-08-20T16:02:28.347Z,6.57
2023-08-20T16:04:56.683Z,4.80
2023-08-20T16:07:24.970Z,4.70
2023-08-20T16:09:53.255Z,4.50
2023-08-20T16:12:22.884Z,4.60
2023-08-20T16:14:51.217Z,5.17
2023-08-20T16:17:19.476Z,5.10
2023-08-20T16:19:47.722Z,4.60
2023-08-20T16:22:16.048Z,4.83
2023-08-20T16:24:44.359Z,5.03
2023-08-20T16:27:12.713Z,4.60
2023-08-20T16:29:42.346Z,5.13
2023-08-20T16:32:11.094Z,5.17
2023-08-20T16:34:39.369Z,4.70
2023-08-20T16:37:07.697Z,5.23
2023-08-20T16:39:36.223Z,5.37
2023-08-20T16:42:04.570Z,5.30
2023-08-20T16:44:33.046Z,5.27
2023-08-20T16:47:02.688Z,5.37
2023-08-20T16:49:31.147Z,5.10
2023-08-20T16:51:59.867Z,4.97
2023-08-20T16:54:28.176Z,6.03
2023-08-20T16:56:56.525Z,6.20
2023-08-20T16:59:24.860Z,6.53
2023-08-20T17:01:53.319Z,5.73
2023-08-20T17:04:22.986Z,5.30
2023-08-20T17:06:51.332Z,5.30
2023-08-20T17:09:20.082Z,5.40
2023-08-20T17:11:48.448Z,5.50
2023-08-20T17:14:17.340Z,5.83
2023-08-20T17:16:46.194Z,5.90
2023-08-20T17:19:14.540Z,5.33
2023-08-20T17:21:45.136Z,6.10
2023-08-20T17:24:13.416Z,5.50
2023-08-20T17:26:41.912Z,5.67
2023-08-20T17:29:10.341Z,5.60
2023-08-20T17:31:38.664Z,5.83
2023-08-20T17:34:07.061Z,5.80
2023-08-20T17:36:35.596Z,5.27
2023-08-20T17:39:08.145Z,5.43
2023-08-20T17:41:36.442Z,6.90
2023-08-20T17:44:04.743Z,5.70
2023-08-20T17:46:44.545Z,6.40
2023-08-20T17:49:12.938Z,6.23
2023-08-20T17:51:41.307Z,5.60
2023-08-20T17:54:11.059Z,6.33
2023-08-20T17:56:39.972Z,6.73
2023-08-20T17:59:08.512Z,5.70
2023-08-20T18:01:36.824Z,5.97
2023-08-20T18:04:05.239Z,5.90
2023-08-20T18:06:33.769Z,5.63
2023-08-20T18:09:02.066Z,5.90
2023-08-20T18:11:31.700Z,6.03
2023-08-20T18:13:59.985Z,6.07
2023-08-20T18:16:28.337Z,6.53
2023-08-20T18:18:56.732Z,6.20
2023-08-20T18:21:25.020Z,6.40
2023-08-20T18:23:53.312Z,6.10
2023-08-20T18:26:22.126Z,5.50
2023-08-20T18:28:51.840Z,5.70
2023-08-20T18:31:20.218Z,6.30
2023-08-20T18:33:48.479Z,5.90
2023-08-20T18:36:16.884Z,6.93
2023-08-20T18:38:45.171Z,6.03
2023-08-20T18:41:15.833Z,6.13
2023-08-20T18:43:44.367Z,6.60
2023-08-20T18:46:14.116Z,6.47
2023-08-20T18:48:42.516Z,7.03
2023-08-20T18:51:10.829Z,6.77
2023-08-20T18:53:39.093Z,7.20
2023-08-20T18:56:07.977Z,7.03
2023-08-20T18:58:36.732Z,7.87
2023-08-20T19:01:05.116Z,7.47
2023-08-20T19:03:34.876Z,7.00
2023-08-20T19:06:04.180Z,7.17
2023-08-20T19:08:32.483Z,6.37
2023-08-20T19:11:01.502Z,7.00
2023-08-20T19:13:29.955Z,6.83
2023-08-20T19:15:58.311Z,7.20
2023-08-20T19:18:26.776Z,6.87
2023-08-20T19:20:56.907Z,6.70
2023-08-20T19:23:25.504Z,6.90
2023-08-20T19:25:53.986Z,7.27
2023-08-20T19:28:22.325Z,7.10
2023-08-20T19:30:51.164Z,6.80
2023-08-20T19:33:19.920Z,6.80
2023-08-20T19:35:48.289Z,7.10
2023-08-20T19:38:18.857Z,7.40
2023-08-20T19:40:48.840Z,7.40
2023-08-20T19:43:17.336Z,6.90
2023-08-20T19:45:45.685Z,7.20
2023-08-20T19:48:14.131Z,6.97
2023-08-20T19:50:43.001Z,7.43
2023-08-20T19:53:11.254Z,6.90
2023-08-20T19:55:41.177Z,7.37
2023-08-20T19:58:09.548Z,7.20
2023-08-20T20:00:38.163Z,6.50
2023-08-20T20:03:07.983Z,7.70
2023-08-20T20:05:36.329Z,7.07
2023-08-20T20:08:04.992Z,6.90
2023-08-20T20:10:33.309Z,7.10
2023-08-20T20:13:03.816Z,7.53
2023-08-20T20:15:32.113Z,7.43
2023-08-20T20:18:00.436Z,7.10
2023-08-20T20:20:29.130Z,7.20
2023-08-20T20:22:57.426Z,7.40
2023-08-20T20:25:25.675Z,7.57
2023-08-20T20:27:53.935Z,7.70
2023-08-20T20:30:23.726Z,8.03
2023-08-20T20:32:52.030Z,7.80
2023-08-20T20:35:21.577Z,7.23
2023-08-20T20:37:49.954Z,8.33
2023-08-20T20:40:18.290Z,7.40
2023-08-20T20:42:46.551Z,7.10
2023-08-20T20:45:15.025Z,7.90
2023-08-20T20:47:44.676Z,7.10
2023-08-20T20:50:13.032Z,7.93
2023-08-20T20:52:41.303Z,8.27
2023-08-20T20:55:10.424Z,8.20
2023-08-20T20:57:39.126Z,7.47
2023-08-20T21:00:09.160Z,8.00
2023-08-20T21:02:37.630Z,7.77
2023-08-20T21:05:08.207Z,7.67
2023-08-20T21:07:37.197Z,7.70
2023-08-20T21:10:05.664Z,7.40
2023-08-20T21:12:33.950Z,8.40
2023-08-20T21:15:02.392Z,7.57
2023-08-20T21:17:30.757Z,7.77
2023-08-20T21:19:59.325Z,8.00
2023-08-20T21:22:29.048Z,7.67
2023-08-20T21:24:57.394Z,8.13
2023-08-20T21:27:25.741Z,7.30
2023-08-20T21:29:54.080Z,8.20
2023-08-20T21:32:22.464Z,8.00
2023-08-20T21:34:51.343Z,7.03
2023-08-20T21:37:19.630Z,8.23
2023-08-20T21:39:49.288Z,7.10
2023-08-20T21:42:17.528Z,8.10
2023-08-20T21:44:45.776Z,8.10
2023-08-20T21:47:23.566Z,7.60
2023-08-20T21:49:51.957Z,8.00
2023-08-20T21:52:20.647Z,8.20
2023-08-20T21:54:50.290Z,8.47
2023-08-20T21:57:18.793Z,8.57
2023-08-20T21:59:48.192Z,8.30
2023-08-20T22:02:16.675Z,8.30
2023-08-20T22:04:44.968Z,8.63
2023-08-20T22:07:13.277Z,8.63
2023-08-20T22:09:41.598Z,7.60
2023-08-20T22:12:11.904Z,7.50
2023-08-20T22:14:41.163Z,8.10
2023-08-20T22:17:09.577Z,8.53
2023-08-20T22:19:37.869Z,7.97
2023-08-20T22:22:06.144Z,8.87
2023-08-20T22:24:34.401Z,8.90
2023-08-20T22:27:02.679Z,9.13
2023-08-20T22:29:32.362Z,8.93
2023-08-20T22:32:00.619Z,8.50
2023-08-20T22:34:28.891Z,8.77
2023-08-20T22:36:57.194Z,8.50
2023-08-20T22:39:25.469Z,8.30
2023-08-20T22:41:53.763Z,8.57
2023-08-20T22:44:22.042Z,8.53
2023-08-20T22:46:51.610Z,9.00
2023-08-20T22:49:19.851Z,9.10
2023-08-20T22:51:48.178Z,9.30
2023-08-20T22:54:16.563Z,8.80
2023-08-20T22:56:44.868Z,8.40
2023-08-20T22:59:14.800Z,9.07
2023-08-20T23:01:43.122Z,8.67
2023-08-20T23:04:12.762Z,8.47
2023-08-20T23:06:41.143Z,8.63
2023-08-20T23:09:09.474Z,9.43
2023-08-20T23:11:37.743Z,8.67
2023-08-20T23:14:06.064Z,8.83
2023-08-20T23:16:34.480Z,8.80
2023-08-20T23:19:04.026Z,8.87
2023-08-20T23:21:34.100Z,8.40
2023-08-20T23:24:02.400Z,8.53
2023-08-20T23:26:30.655Z,8.47
2023-08-20T23:29:00.335Z,7.67
2023-08-20T23:31:29.158Z,7.90
2023-08-20T23:33:57.500Z,8.17
2023-08-20T23:36:25.840Z,8.60
2023-08-20T23:38:55.492Z,8.30
2023-08-20T23:41:23.830Z,8.43
2023-08-20T23:43:52.180Z,7.93
2023-08-20T23:46:25.520Z,7.77
2023-08-20T23:48:59.265Z,7.67
2023-08-20T23:51:27.549Z,8.10
2023-08-20T23:53:57.253Z,8.07
2023-08-20T23:56:25.482Z,8.57
2023-08-20T23:58:53.733Z,7.80
